sensor_id;sensor_type;location;lat;lon;timestamp;temperature;humidity
32366;DHT22;18837;46.832;16.838;2022-08-21T00:01:32;23.70;71.80
32366;DHT22;18837;46.832;16.838;2022-08-21T00:04:04;23.70;72.00
32366;DHT22;18837;46.832;16.838;2022-08-21T00:06:30;23.60;72.00
32366;DHT22;18837;46.832;16.838;2022-08-21T00:08:55;23.60;72.00
32366;DHT22;18837;46.832;16.838;2022-08-21T00:11:22;23.60;72.50
32366;DHT22;18837;46.832;16.838;2022-08-21T00:13:47;23.60;72.50
32366;DHT22;18837;46.832;16.838;2022-08-21T00:16:13;23.60;71.90
32366;DHT22;18837;46.832;16.838;2022-08-21T00:18:39;23.60;71.90
32366;DHT22;18837;46.832;16.838;2022-08-21T00:21:06;23.60;71.80
32366;DHT22;18837;46.832;16.838;2022-08-21T00:23:34;23.60;71.70
32366;DHT22;18837;46.832;16.838;2022-08-21T00:26:00;23.60;71.40
32366;DHT22;18837;46.832;16.838;2022-08-21T00:28:25;23.60;71.60
32366;DHT22;18837;46.832;16.838;2022-08-21T00:30:51;23.60;71.80
32366;DHT22;18837;46.832;16.838;2022-08-21T00:33:17;23.60;71.80
32366;DHT22;18837;46.832;16.838;2022-08-21T00:35:43;23.50;71.70
32366;DHT22;18837;46.832;16.838;2022-08-21T00:38:09;23.50;71.70
32366;DHT22;18837;46.832;16.838;2022-08-21T00:40:44;23.50;71.40
32366;DHT22;18837;46.832;16.838;2022-08-21T00:43:12;23.50;71.40
32366;DHT22;18837;46.832;16.838;2022-08-21T00:45:39;23.50;71.40
32366;DHT22;18837;46.832;16.838;2022-08-21T00:48:05;23.50;71.50
32366;DHT22;18837;46.832;16.838;2022-08-21T00:50:34;23.50;71.40
32366;DHT22;18837;46.832;16.838;2022-08-21T00:53:02;23.50;71.70
32366;DHT22;18837;46.832;16.838;2022-08-21T00:55:28;23.50;71.70
32366;DHT22;18837;46.832;16.838;2022-08-21T00:57:56;23.50;71.80
32366;DHT22;18837;46.832;16.838;2022-08-21T01:00:29;23.50;71.70
32366;DHT22;18837;46.832;16.838;2022-08-21T01:03:01;23.50;71.50
32366;DHT22;18837;46.832;16.838;2022-08-21T01:05:27;23.50;71.40
32366;DHT22;18837;46.832;16.838;2022-08-21T01:07:54;23.40;72.00
32366;DHT22;18837;46.832;16.838;2022-08-21T01:10:22;23.40;72.40
32366;DHT22;18837;46.832;16.838;2022-08-21T01:12:49;23.40;72.30
32366;DHT22;18837;46.832;16.838;2022-08-21T01:15:17;23.40;72.10
32366;DHT22;18837;46.832;16.838;2022-08-21T01:17:43;23.40;72.30
32366;DHT22;18837;46.832;16.838;2022-08-21T01:20:10;23.30;71.90
32366;DHT22;18837;46.832;16.838;2022-08-21T01:22:37;23.30;71.90
32366;DHT22;18837;46.832;16.838;2022-08-21T01:25:06;23.30;72.30
32366;DHT22;18837;46.832;16.838;2022-08-21T01:27:32;23.30;72.40
32366;DHT22;18837;46.832;16.838;2022-08-21T01:30:05;23.30;72.70
32366;DHT22;18837;46.832;16.838;2022-08-21T01:32:33;23.30;72.50
32366;DHT22;18837;46.832;16.838;2022-08-21T01:34:59;23.20;72.70
32366;DHT22;18837;46.832;16.838;2022-08-21T01:37:24;23.30;73.00
32366;DHT22;18837;46.832;16.838;2022-08-21T01:39:50;23.30;72.80
32366;DHT22;18837;46.832;16.838;2022-08-21T01:42:16;23.30;72.80
32366;DHT22;18837;46.832;16.838;2022-08-21T01:44:42;23.30;72.70
32366;DHT22;18837;46.832;16.838;2022-08-21T01:47:10;23.30;72.60
32366;DHT22;18837;46.832;16.838;2022-08-21T01:49:38;23.30;72.20
32366;DHT22;18837;46.832;16.838;2022-08-21T01:52:05;23.30;72.30
32366;DHT22;18837;46.832;16.838;2022-08-21T01:54:30;23.30;72.30
32366;DHT22;18837;46.832;16.838;2022-08-21T01:56:59;23.20;72.10
32366;DHT22;18837;46.832;16.838;2022-08-21T01:59:25;23.30;72.20
32366;DHT22;18837;46.832;16.838;2022-08-21T02:01:51;23.20;71.90
32366;DHT22;18837;46.832;16.838;2022-08-21T02:04:19;23.20;72.50
32366;DHT22;18837;46.832;16.838;2022-08-21T02:06:45;23.20;72.40
32366;DHT22;18837;46.832;16.838;2022-08-21T02:09:11;23.20;72.40
32366;DHT22;18837;46.832;16.838;2022-08-21T02:11:37;23.20;72.50
32366;DHT22;18837;46.832;16.838;2022-08-21T02:14:10;23.20;72.40
32366;DHT22;18837;46.832;16.838;2022-08-21T02:16:38;23.20;72.90
32366;DHT22;18837;46.832;16.838;2022-08-21T02:19:04;23.20;72.30
32366;DHT22;18837;46.832;16.838;2022-08-21T02:21:30;23.20;72.50
32366;DHT22;18837;46.832;16.838;2022-08-21T02:23:56;23.20;72.40
32366;DHT22;18837;46.832;16.838;2022-08-21T02:26:22;23.20;72.30
32366;DHT22;18837;46.832;16.838;2022-08-21T02:28:47;23.20;72.30
32366;DHT22;18837;46.832;16.838;2022-08-21T02:31:13;23.10;72.70
32366;DHT22;18837;46.832;16.838;2022-08-21T02:33:39;23.10;72.50
32366;DHT22;18837;46.832;16.838;2022-08-21T02:36:05;23.10;73.00
32366;DHT22;18837;46.832;16.838;2022-08-21T02:38:33;23.10;73.10
32366;DHT22;18837;46.832;16.838;2022-08-21T02:41:03;23.10;73.00
32366;DHT22;18837;46.832;16.838;2022-08-21T02:43:29;23.10;73.10
32366;DHT22;18837;46.832;16.838;2022-08-21T02:45:56;23.10;73.20
32366;DHT22;18837;46.832;16.838;2022-08-21T02:48:26;23.10;73.10
32366;DHT22;18837;46.832;16.838;2022-08-21T02:51:19;23.10;73.20
32366;DHT22;18837;46.832;16.838;2022-08-21T02:53:46;23.10;73.10
32366;DHT22;18837;46.832;16.838;2022-08-21T02:56:14;23.10;73.20
32366;DHT22;18837;46.832;16.838;2022-08-21T02:58:45;23.00;73.40
32366;DHT22;18837;46.832;16.838;2022-08-21T03:01:12;23.10;73.50
32366;DHT22;18837;46.832;16.838;2022-08-21T03:03:40;23.10;73.20
32366;DHT22;18837;46.832;16.838;2022-08-21T03:06:07;23.10;73.00
32366;DHT22;18837;46.832;16.838;2022-08-21T03:08:34;23.10;73.30
32366;DHT22;18837;46.832;16.838;2022-08-21T03:11:00;23.00;73.00
32366;DHT22;18837;46.832;16.838;2022-08-21T03:13:27;23.00;73.00
32366;DHT22;18837;46.832;16.838;2022-08-21T03:15:54;23.10;73.10
32366;DHT22;18837;46.832;16.838;2022-08-21T03:18:20;23.10;73.10
32366;DHT22;18837;46.832;16.838;2022-08-21T03:20:47;23.10;73.20
32366;DHT22;18837;46.832;16.838;2022-08-21T03:23:14;23.10;73.20
32366;DHT22;18837;46.832;16.838;2022-08-21T03:25:41;23.10;72.90
32366;DHT22;18837;46.832;16.838;2022-08-21T03:28:10;23.10;73.00
32366;DHT22;18837;46.832;16.838;2022-08-21T03:30:37;23.10;73.00
32366;DHT22;18837;46.832;16.838;2022-08-21T03:33:03;23.00;73.10
32366;DHT22;18837;46.832;16.838;2022-08-21T03:35:29;23.00;73.40
32366;DHT22;18837;46.832;16.838;2022-08-21T03:37:55;23.00;73.30
32366;DHT22;18837;46.832;16.838;2022-08-21T03:40:24;23.00;73.10
32366;DHT22;18837;46.832;16.838;2022-08-21T03:42:50;23.00;73.10
32366;DHT22;18837;46.832;16.838;2022-08-21T03:45:18;23.00;72.90
32366;DHT22;18837;46.832;16.838;2022-08-21T03:47:55;23.00;73.00
32366;DHT22;18837;46.832;16.838;2022-08-21T03:50:23;22.90;73.70
32366;DHT22;18837;46.832;16.838;2022-08-21T03:52:49;22.90;73.10
32366;DHT22;18837;46.832;16.838;2022-08-21T03:55:15;22.90;73.50
32366;DHT22;18837;46.832;16.838;2022-08-21T03:57:40;22.90;73.40
32366;DHT22;18837;46.832;16.838;2022-08-21T04:00:07;22.90;73.40
32366;DHT22;18837;46.832;16.838;2022-08-21T04:02:35;22.90;73.80
32366;DHT22;18837;46.832;16.838;2022-08-21T04:05:01;22.90;73.60
32366;DHT22;18837;46.832;16.838;2022-08-21T04:07:27;22.80;73.50
32366;DHT22;18837;46.832;16.838;2022-08-21T04:09:52;22.80;73.50
32366;DHT22;18837;46.832;16.838;2022-08-21T04:12:18;22.80;73.60
32366;DHT22;18837;46.832;16.838;2022-08-21T04:14:44;22.80;73.60
32366;DHT22;18837;46.832;16.838;2022-08-21T04:17:10;22.80;73.40
32366;DHT22;18837;46.832;16.838;2022-08-21T04:19:35;22.80;73.60
32366;DHT22;18837;46.832;16.838;2022-08-21T04:22:01;22.80;73.60
32366;DHT22;18837;46.832;16.838;2022-08-21T04:24:27;22.80;73.70
32366;DHT22;18837;46.832;16.838;2022-08-21T04:26:53;22.80;73.70
32366;DHT22;18837;46.832;16.838;2022-08-21T04:29:18;22.80;73.60
32366;DHT22;18837;46.832;16.838;2022-08-21T04:31:45;22.80;73.60
32366;DHT22;18837;46.832;16.838;2022-08-21T04:34:10;22.80;73.70
32366;DHT22;18837;46.832;16.838;2022-08-21T04:36:36;22.80;73.80
32366;DHT22;18837;46.832;16.838;2022-08-21T04:39:02;22.80;73.60
32366;DHT22;18837;46.832;16.838;2022-08-21T04:41:28;22.80;73.50
32366;DHT22;18837;46.832;16.838;2022-08-21T04:43:55;22.80;73.50
32366;DHT22;18837;46.832;16.838;2022-08-21T04:46:21;22.80;73.50
32366;DHT22;18837;46.832;16.838;2022-08-21T04:48:47;22.80;73.60
32366;DHT22;18837;46.832;16.838;2022-08-21T04:51:22;22.80;73.60
32366;DHT22;18837;46.832;16.838;2022-08-21T04:53:58;22.80;73.70
32366;DHT22;18837;46.832;16.838;2022-08-21T04:56:29;22.80;73.60
32366;DHT22;18837;46.832;16.838;2022-08-21T04:58:58;22.80;73.30
32366;DHT22;18837;46.832;16.838;2022-08-21T05:01:27;22.70;73.40
32366;DHT22;18837;46.832;16.838;2022-08-21T05:03:57;22.70;73.70
32366;DHT22;18837;46.832;16.838;2022-08-21T05:06:23;22.70;73.60
32366;DHT22;18837;46.832;16.838;2022-08-21T05:08:52;22.70;73.70
32366;DHT22;18837;46.832;16.838;2022-08-21T05:11:20;22.70;73.50
32366;DHT22;18837;46.832;16.838;2022-08-21T05:13:47;22.70;73.80
32366;DHT22;18837;46.832;16.838;2022-08-21T05:16:14;22.70;74.00
32366;DHT22;18837;46.832;16.838;2022-08-21T05:18:41;22.60;73.50
32366;DHT22;18837;46.832;16.838;2022-08-21T05:21:07;22.60;73.70
32366;DHT22;18837;46.832;16.838;2022-08-21T05:23:32;22.60;73.80
32366;DHT22;18837;46.832;16.838;2022-08-21T05:25:59;22.60;73.90
32366;DHT22;18837;46.832;16.838;2022-08-21T05:28:26;22.60;73.80
32366;DHT22;18837;46.832;16.838;2022-08-21T05:30:52;22.60;74.00
32366;DHT22;18837;46.832;16.838;2022-08-21T05:33:18;22.60;74.00
32366;DHT22;18837;46.832;16.838;2022-08-21T05:35:44;22.60;74.00
32366;DHT22;18837;46.832;16.838;2022-08-21T05:38:10;22.60;74.00
32366;DHT22;18837;46.832;16.838;2022-08-21T05:40:36;22.60;74.10
32366;DHT22;18837;46.832;16.838;2022-08-21T05:43:02;22.60;73.90
32366;DHT22;18837;46.832;16.838;2022-08-21T05:45:30;22.60;74.00
32366;DHT22;18837;46.832;16.838;2022-08-21T05:47:56;22.60;73.90
32366;DHT22;18837;46.832;16.838;2022-08-21T05:50:22;22.60;73.90
32366;DHT22;18837;46.832;16.838;2022-08-21T05:52:48;22.60;73.90
32366;DHT22;18837;46.832;16.838;2022-08-21T05:55:14;22.60;73.90
32366;DHT22;18837;46.832;16.838;2022-08-21T05:57:40;22.60;73.60
32366;DHT22;18837;46.832;16.838;2022-08-21T06:00:08;22.60;74.60
32366;DHT22;18837;46.832;16.838;2022-08-21T06:02:39;22.60;74.20
32366;DHT22;18837;46.832;16.838;2022-08-21T06:05:05;22.50;74.40
32366;DHT22;18837;46.832;16.838;2022-08-21T06:07:31;22.50;74.80
32366;DHT22;18837;46.832;16.838;2022-08-21T06:09:57;22.40;74.80
32366;DHT22;18837;46.832;16.838;2022-08-21T06:12:23;22.40;75.10
32366;DHT22;18837;46.832;16.838;2022-08-21T06:14:49;22.40;75.20
32366;DHT22;18837;46.832;16.838;2022-08-21T06:17:17;22.30;75.50
32366;DHT22;18837;46.832;16.838;2022-08-21T06:19:43;22.30;75.50
32366;DHT22;18837;46.832;16.838;2022-08-21T06:22:09;22.30;75.50
32366;DHT22;18837;46.832;16.838;2022-08-21T06:24:35;22.20;75.50
32366;DHT22;18837;46.832;16.838;2022-08-21T06:27:08;22.20;75.60
32366;DHT22;18837;46.832;16.838;2022-08-21T06:29:34;22.20;75.40
32366;DHT22;18837;46.832;16.838;2022-08-21T06:32:01;22.20;75.80
32366;DHT22;18837;46.832;16.838;2022-08-21T06:34:27;22.20;75.80
32366;DHT22;18837;46.832;16.838;2022-08-21T06:36:53;22.30;75.60
32366;DHT22;18837;46.832;16.838;2022-08-21T06:39:18;22.30;75.70
32366;DHT22;18837;46.832;16.838;2022-08-21T06:41:45;22.30;75.70
32366;DHT22;18837;46.832;16.838;2022-08-21T06:44:12;22.40;75.60
32366;DHT22;18837;46.832;16.838;2022-08-21T06:46:41;22.40;75.20
32366;DHT22;18837;46.832;16.838;2022-08-21T06:49:08;22.40;75.30
32366;DHT22;18837;46.832;16.838;2022-08-21T06:51:34;22.50;75.40
32366;DHT22;18837;46.832;16.838;2022-08-21T06:54:00;22.60;75.10
32366;DHT22;18837;46.832;16.838;2022-08-21T06:56:25;22.60;74.80
32366;DHT22;18837;46.832;16.838;2022-08-21T06:58:52;22.60;74.70
32366;DHT22;18837;46.832;16.838;2022-08-21T07:01:20;22.70;74.50
32366;DHT22;18837;46.832;16.838;2022-08-21T07:03:47;22.70;74.40
32366;DHT22;18837;46.832;16.838;2022-08-21T07:06:13;22.70;74.30
32366;DHT22;18837;46.832;16.838;2022-08-21T07:08:40;22.80;74.00
32366;DHT22;18837;46.832;16.838;2022-08-21T07:11:19;22.80;74.10
32366;DHT22;18837;46.832;16.838;2022-08-21T07:13:45;22.80;73.60
32366;DHT22;18837;46.832;16.838;2022-08-21T07:16:11;22.80;73.70
32366;DHT22;18837;46.832;16.838;2022-08-21T07:18:37;22.90;74.00
32366;DHT22;18837;46.832;16.838;2022-08-21T07:21:05;22.90;74.30
32366;DHT22;18837;46.832;16.838;2022-08-21T07:23:33;22.90;74.40
32366;DHT22;18837;46.832;16.838;2022-08-21T07:26:00;22.90;74.50
32366;DHT22;18837;46.832;16.838;2022-08-21T07:28:26;22.80;73.80
32366;DHT22;18837;46.832;16.838;2022-08-21T07:30:54;22.80;73.90
32366;DHT22;18837;46.832;16.838;2022-08-21T07:33:21;22.80;74.00
32366;DHT22;18837;46.832;16.838;2022-08-21T07:35:47;22.80;73.90
32366;DHT22;18837;46.832;16.838;2022-08-21T07:38:14;22.80;73.90
32366;DHT22;18837;46.832;16.838;2022-08-21T07:40:40;22.80;74.00
32366;DHT22;18837;46.832;16.838;2022-08-21T07:43:05;22.80;74.10
32366;DHT22;18837;46.832;16.838;2022-08-21T07:45:31;22.80;74.00
32366;DHT22;18837;46.832;16.838;2022-08-21T07:47:59;22.80;74.10
32366;DHT22;18837;46.832;16.838;2022-08-21T07:50:25;22.80;74.10
32366;DHT22;18837;46.832;16.838;2022-08-21T07:52:51;22.80;74.20
32366;DHT22;18837;46.832;16.838;2022-08-21T07:55:19;22.80;73.80
32366;DHT22;18837;46.832;16.838;2022-08-21T07:57:46;22.90;73.70
32366;DHT22;18837;46.832;16.838;2022-08-21T08:00:14;22.90;73.30
32366;DHT22;18837;46.832;16.838;2022-08-21T08:02:43;23.00;73.30
32366;DHT22;18837;46.832;16.838;2022-08-21T08:05:11;23.00;73.00
32366;DHT22;18837;46.832;16.838;2022-08-21T08:07:37;23.10;72.90
32366;DHT22;18837;46.832;16.838;2022-08-21T08:10:04;23.10;72.90
32366;DHT22;18837;46.832;16.838;2022-08-21T08:12:34;23.20;72.70
32366;DHT22;18837;46.832;16.838;2022-08-21T08:15:01;23.20;72.80
32366;DHT22;18837;46.832;16.838;2022-08-21T08:17:27;23.20;72.80
32366;DHT22;18837;46.832;16.838;2022-08-21T08:19:54;23.30;72.60
32366;DHT22;18837;46.832;16.838;2022-08-21T08:22:22;23.30;72.60
32366;DHT22;18837;46.832;16.838;2022-08-21T08:24:52;23.40;72.70
32366;DHT22;18837;46.832;16.838;2022-08-21T08:27:18;23.40;72.50
32366;DHT22;18837;46.832;16.838;2022-08-21T08:29:44;23.50;72.20
32366;DHT22;18837;46.832;16.838;2022-08-21T08:32:10;23.50;71.90
32366;DHT22;18837;46.832;16.838;2022-08-21T08:34:38;23.50;71.80
32366;DHT22;18837;46.832;16.838;2022-08-21T08:37:06;23.50;71.70
32366;DHT22;18837;46.832;16.838;2022-08-21T08:39:33;23.40;71.70
32366;DHT22;18837;46.832;16.838;2022-08-21T08:42:12;23.40;71.60
32366;DHT22;18837;46.832;16.838;2022-08-21T08:44:45;23.40;72.50
32366;DHT22;18837;46.832;16.838;2022-08-21T08:47:13;23.30;71.80
32366;DHT22;18837;46.832;16.838;2022-08-21T08:50:07;23.30;72.20
32366;DHT22;18837;46.832;16.838;2022-08-21T08:52:45;23.20;72.20
32366;DHT22;18837;46.832;16.838;2022-08-21T08:55:23;23.20;72.60
32366;DHT22;18837;46.832;16.838;2022-08-21T08:57:51;23.10;72.30
32366;DHT22;18837;46.832;16.838;2022-08-21T09:00:20;23.10;72.20
32366;DHT22;18837;46.832;16.838;2022-08-21T09:02:47;23.10;71.90
32366;DHT22;18837;46.832;16.838;2022-08-21T09:05:27;23.00;72.30
32366;DHT22;18837;46.832;16.838;2022-08-21T09:10:48;23.10;71.90
32366;DHT22;18837;46.832;16.838;2022-08-21T09:22:32;23.40;70.60
32366;DHT22;18837;46.832;16.838;2022-08-21T09:24:32;23.50;70.50
32366;DHT22;18837;46.832;16.838;2022-08-21T09:27:14;23.60;70.90
32366;DHT22;18837;46.832;16.838;2022-08-21T09:29:48;23.60;70.70
32366;DHT22;18837;46.832;16.838;2022-08-21T09:32:31;23.70;70.50
32366;DHT22;18837;46.832;16.838;2022-08-21T09:37:33;23.80;69.90
32366;DHT22;18837;46.832;16.838;2022-08-21T09:40:00;23.80;70.00
32366;DHT22;18837;46.832;16.838;2022-08-21T09:42:32;23.80;69.90
32366;DHT22;18837;46.832;16.838;2022-08-21T09:45:23;23.80;69.70
32366;DHT22;18837;46.832;16.838;2022-08-21T09:47:54;23.80;69.50
32366;DHT22;18837;46.832;16.838;2022-08-21T09:50:25;23.90;69.50
32366;DHT22;18837;46.832;16.838;2022-08-21T09:52:58;23.90;69.50
32366;DHT22;18837;46.832;16.838;2022-08-21T09:58:47;23.80;69.30
32366;DHT22;18837;46.832;16.838;2022-08-21T10:01:23;23.80;69.90
32366;DHT22;18837;46.832;16.838;2022-08-21T10:04:10;23.70;69.30
32366;DHT22;18837;46.832;16.838;2022-08-21T10:06:36;23.70;69.70
32366;DHT22;18837;46.832;16.838;2022-08-21T10:11:30;23.60;69.80
32366;DHT22;18837;46.832;16.838;2022-08-21T10:14:05;23.60;70.00
32366;DHT22;18837;46.832;16.838;2022-08-21T10:19:44;23.50;70.70
32366;DHT22;18837;46.832;16.838;2022-08-21T10:22:22;23.50;69.90
32366;DHT22;18837;46.832;16.838;2022-08-21T10:25:18;23.50;70.20
32366;DHT22;18837;46.832;16.838;2022-08-21T10:28:01;23.50;70.30
32366;DHT22;18837;46.832;16.838;2022-08-21T10:30:48;23.60;70.50
32366;DHT22;18837;46.832;16.838;2022-08-21T10:33:24;23.60;70.40
32366;DHT22;18837;46.832;16.838;2022-08-21T10:50:33;24.00;69.20
32366;DHT22;18837;46.832;16.838;2022-08-21T10:53:32;24.00;69.00
32366;DHT22;18837;46.832;16.838;2022-08-21T10:56:23;24.00;69.20
32366;DHT22;18837;46.832;16.838;2022-08-21T10:58:53;24.00;68.70
32366;DHT22;18837;46.832;16.838;2022-08-21T11:01:32;24.00;68.80
32366;DHT22;18837;46.832;16.838;2022-08-21T11:04:20;24.00;68.50
32366;DHT22;18837;46.832;16.838;2022-08-21T11:07:10;24.10;68.70
32366;DHT22;18837;46.832;16.838;2022-08-21T11:09:43;24.00;68.60
32366;DHT22;18837;46.832;16.838;2022-08-21T11:12:20;24.10;68.50
32366;DHT22;18837;46.832;16.838;2022-08-21T11:15:02;24.10;68.80
32366;DHT22;18837;46.832;16.838;2022-08-21T11:17:49;24.10;68.70
32366;DHT22;18837;46.832;16.838;2022-08-21T11:23:29;24.00;68.80
32366;DHT22;18837;46.832;16.838;2022-08-21T11:26:02;23.90;69.00
32366;DHT22;18837;46.832;16.838;2022-08-21T11:28:34;23.90;69.20
32366;DHT22;18837;46.832;16.838;2022-08-21T11:31:20;23.80;69.30
32366;DHT22;18837;46.832;16.838;2022-08-21T11:39:45;23.70;69.30
32366;DHT22;18837;46.832;16.838;2022-08-21T11:42:28;23.70;69.50
32366;DHT22;18837;46.832;16.838;2022-08-21T11:45:18;23.70;69.50
32366;DHT22;18837;46.832;16.838;2022-08-21T11:50:37;23.60;69.50
32366;DHT22;18837;46.832;16.838;2022-08-21T11:53:17;23.60;70.00
32366;DHT22;18837;46.832;16.838;2022-08-21T11:56:16;23.70;70.10
32366;DHT22;18837;46.832;16.838;2022-08-21T11:58:41;23.80;70.20
32366;DHT22;18837;46.832;16.838;2022-08-21T12:01:34;23.90;70.10
32366;DHT22;18837;46.832;16.838;2022-08-21T12:06:47;24.00;69.20
32366;DHT22;18837;46.832;16.838;2022-08-21T12:14:47;24.10;68.50
32366;DHT22;18837;46.832;16.838;2022-08-21T12:17:19;24.20;68.50
32366;DHT22;18837;46.832;16.838;2022-08-21T12:19:56;24.10;68.50
32366;DHT22;18837;46.832;16.838;2022-08-21T12:22:22;24.10;68.30
32366;DHT22;18837;46.832;16.838;2022-08-21T12:25:11;24.20;68.70
32366;DHT22;18837;46.832;16.838;2022-08-21T12:27:52;24.20;68.40
32366;DHT22;18837;46.832;16.838;2022-08-21T12:33:03;24.30;69.50
32366;DHT22;18837;46.832;16.838;2022-08-21T12:35:40;24.30;67.70
32366;DHT22;18837;46.832;16.838;2022-08-21T12:40:57;24.30;68.70
32366;DHT22;18837;46.832;16.838;2022-08-21T12:43:51;24.20;67.80
32366;DHT22;18837;46.832;16.838;2022-08-21T12:46:21;24.10;67.80
32366;DHT22;18837;46.832;16.838;2022-08-21T12:48:54;24.00;67.90
32366;DHT22;18837;46.832;16.838;2022-08-21T12:54:31;23.90;68.30
32366;DHT22;18837;46.832;16.838;2022-08-21T12:57:02;23.90;68.20
32366;DHT22;18837;46.832;16.838;2022-08-21T12:59:38;23.80;68.20
32366;DHT22;18837;46.832;16.838;2022-08-21T13:02:18;23.80;68.40
32366;DHT22;18837;46.832;16.838;2022-08-21T13:04:46;23.80;68.30
32366;DHT22;18837;46.832;16.838;2022-08-21T13:07:16;23.80;68.50
32366;DHT22;18837;46.832;16.838;2022-08-21T13:09:52;23.80;68.80
32366;DHT22;18837;46.832;16.838;2022-08-21T13:12:20;23.80;68.60
32366;DHT22;18837;46.832;16.838;2022-08-21T13:14:48;23.80;68.70
32366;DHT22;18837;46.832;16.838;2022-08-21T13:17:18;23.80;68.70
32366;DHT22;18837;46.832;16.838;2022-08-21T13:20:00;23.80;68.80
32366;DHT22;18837;46.832;16.838;2022-08-21T13:22:28;23.90;68.50
32366;DHT22;18837;46.832;16.838;2022-08-21T13:24:56;24.00;68.80
32366;DHT22;18837;46.832;16.838;2022-08-21T13:30:11;24.10;68.10
32366;DHT22;18837;46.832;16.838;2022-08-21T13:32:59;24.10;68.40
32366;DHT22;18837;46.832;16.838;2022-08-21T13:35:33;24.10;67.90
32366;DHT22;18837;46.832;16.838;2022-08-21T13:38:01;24.10;67.80
32366;DHT22;18837;46.832;16.838;2022-08-21T13:43:20;24.20;68.00
32366;DHT22;18837;46.832;16.838;2022-08-21T13:45:53;24.20;67.70
32366;DHT22;18837;46.832;16.838;2022-08-21T13:48:34;24.20;67.70
32366;DHT22;18837;46.832;16.838;2022-08-21T13:51:05;24.20;67.60
32366;DHT22;18837;46.832;16.838;2022-08-21T13:53:51;24.20;67.80
32366;DHT22;18837;46.832;16.838;2022-08-21T13:56:28;24.20;67.90
32366;DHT22;18837;46.832;16.838;2022-08-21T13:58:57;24.20;67.60
32366;DHT22;18837;46.832;16.838;2022-08-21T14:01:52;24.10;68.20
32366;DHT22;18837;46.832;16.838;2022-08-21T14:04:26;24.20;68.50
32366;DHT22;18837;46.832;16.838;2022-08-21T14:06:56;24.20;67.60
32366;DHT22;18837;46.832;16.838;2022-08-21T14:09:34;24.20;67.90
32366;DHT22;18837;46.832;16.838;2022-08-21T14:12:11;24.10;67.80
32366;DHT22;18837;46.832;16.838;2022-08-21T14:14:39;24.10;68.00
32366;DHT22;18837;46.832;16.838;2022-08-21T14:17:07;24.00;68.10
32366;DHT22;18837;46.832;16.838;2022-08-21T14:19:43;24.00;68.00
32366;DHT22;18837;46.832;16.838;2022-08-21T14:22:51;24.00;68.20
32366;DHT22;18837;46.832;16.838;2022-08-21T14:25:42;24.00;68.40
32366;DHT22;18837;46.832;16.838;2022-08-21T14:30:46;24.00;68.30
32366;DHT22;18837;46.832;16.838;2022-08-21T14:35:49;23.90;68.00
32366;DHT22;18837;46.832;16.838;2022-08-21T14:38:20;23.90;67.70
32366;DHT22;18837;46.832;16.838;2022-08-21T14:40:55;23.80;67.80
32366;DHT22;18837;46.832;16.838;2022-08-21T14:43:22;23.90;67.70
32366;DHT22;18837;46.832;16.838;2022-08-21T14:45:49;23.90;67.60
32366;DHT22;18837;46.832;16.838;2022-08-21T14:48:15;24.00;67.80
32366;DHT22;18837;46.832;16.838;2022-08-21T14:50:40;24.00;67.50
32366;DHT22;18837;46.832;16.838;2022-08-21T14:53:07;24.10;67.20
32366;DHT22;18837;46.832;16.838;2022-08-21T14:55:56;24.10;67.10
32366;DHT22;18837;46.832;16.838;2022-08-21T14:58:47;24.10;66.90
32366;DHT22;18837;46.832;16.838;2022-08-21T15:01:19;24.10;66.90
32366;DHT22;18837;46.832;16.838;2022-08-21T15:03:46;24.10;66.80
32366;DHT22;18837;46.832;16.838;2022-08-21T15:06:14;24.10;66.70
32366;DHT22;18837;46.832;16.838;2022-08-21T15:08:40;24.10;66.50
32366;DHT22;18837;46.832;16.838;2022-08-21T15:11:10;24.10;67.00
32366;DHT22;18837;46.832;16.838;2022-08-21T15:13:37;24.10;66.60
32366;DHT22;18837;46.832;16.838;2022-08-21T15:16:03;24.10;66.50
32366;DHT22;18837;46.832;16.838;2022-08-21T15:18:30;24.10;66.70
32366;DHT22;18837;46.832;16.838;2022-08-21T15:20:57;24.10;66.80
32366;DHT22;18837;46.832;16.838;2022-08-21T15:23:22;24.00;66.90
32366;DHT22;18837;46.832;16.838;2022-08-21T15:25:49;24.00;66.80
32366;DHT22;18837;46.832;16.838;2022-08-21T15:28:16;24.00;67.00
32366;DHT22;18837;46.832;16.838;2022-08-21T15:30:50;24.00;67.10
32366;DHT22;18837;46.832;16.838;2022-08-21T15:33:17;24.00;67.00
32366;DHT22;18837;46.832;16.838;2022-08-21T15:35:47;24.00;67.00
32366;DHT22;18837;46.832;16.838;2022-08-21T15:38:14;23.90;66.80
32366;DHT22;18837;46.832;16.838;2022-08-21T15:40:43;23.90;66.80
32366;DHT22;18837;46.832;16.838;2022-08-21T15:43:22;23.90;67.20
32366;DHT22;18837;46.832;16.838;2022-08-21T15:45:49;23.80;67.30
32366;DHT22;18837;46.832;16.838;2022-08-21T15:48:16;23.80;67.60
32366;DHT22;18837;46.832;16.838;2022-08-21T15:50:47;23.70;67.60
32366;DHT22;18837;46.832;16.838;2022-08-21T15:53:14;23.70;68.00
32366;DHT22;18837;46.832;16.838;2022-08-21T15:55:40;23.60;68.10
32366;DHT22;18837;46.832;16.838;2022-08-21T15:58:06;23.60;68.30
32366;DHT22;18837;46.832;16.838;2022-08-21T16:00:35;23.60;68.30
32366;DHT22;18837;46.832;16.838;2022-08-21T16:03:04;23.50;68.40
32366;DHT22;18837;46.832;16.838;2022-08-21T16:05:37;23.50;68.70
32366;DHT22;18837;46.832;16.838;2022-08-21T16:08:04;23.50;68.70
32366;DHT22;18837;46.832;16.838;2022-08-21T16:10:29;23.50;68.80
32366;DHT22;18837;46.832;16.838;2022-08-21T16:13:02;23.50;68.30
32366;DHT22;18837;46.832;16.838;2022-08-21T16:15:29;23.50;68.10
32366;DHT22;18837;46.832;16.838;2022-08-21T16:17:55;23.60;68.00
32366;DHT22;18837;46.832;16.838;2022-08-21T16:20:25;23.70;67.70
32366;DHT22;18837;46.832;16.838;2022-08-21T16:22:53;23.70;67.60
32366;DHT22;18837;46.832;16.838;2022-08-21T16:25:19;23.70;67.40
32366;DHT22;18837;46.832;16.838;2022-08-21T16:27:51;23.70;67.40
32366;DHT22;18837;46.832;16.838;2022-08-21T16:30:21;23.80;67.20
32366;DHT22;18837;46.832;16.838;2022-08-21T16:32:47;23.80;67.60
32366;DHT22;18837;46.832;16.838;2022-08-21T16:35:15;23.80;66.70
32366;DHT22;18837;46.832;16.838;2022-08-21T16:37:41;23.80;67.00
32366;DHT22;18837;46.832;16.838;2022-08-21T16:40:09;23.80;67.10
32366;DHT22;18837;46.832;16.838;2022-08-21T16:42:55;23.80;67.00
32366;DHT22;18837;46.832;16.838;2022-08-21T16:45:21;23.80;67.70
32366;DHT22;18837;46.832;16.838;2022-08-21T16:47:47;23.80;67.00
32366;DHT22;18837;46.832;16.838;2022-08-21T16:50:16;23.80;67.10